createdAt,value
2023-03-20T00:02:26.678Z,95676.81
2023-03-20T00:04:55.305Z,95675.72
2023-03-20T00:07:25.172Z,95668.75
2023-03-20T00:09:55.003Z,95665.00
2023-03-20T00:12:26.477Z,95663.63
2023-03-20T00:14:55.060Z,95660.41
2023-03-20T00:17:23.350Z,95667.44
2023-03-20T00:19:51.736Z,95660.72
2023-03-20T00:22:20.051Z,95658.03
2023-03-20T00:24:49.907Z,95660.16
2023-03-20T00:27:19.779Z,95653.41
2023-03-20T00:29:48.064Z,95666.06
2023-03-20T00:32:16.838Z,95667.91
2023-03-20T00:34:45.188Z,95660.09
2023-03-20T00:37:13.717Z,95670.31
2023-03-20T00:39:42.550Z,95665.47
2023-03-20T00:42:21.177Z,95657.91
2023-03-20T00:44:53.306Z,95661.66
2023-03-20T00:47:24.394Z,95637.41
2023-03-20T00:49:54.472Z,95662.75
2023-03-20T00:52:24.308Z,95665.97
2023-03-20T00:54:52.724Z,95577.50
2023-03-20T00:57:25.764Z,95663.81
2023-03-20T00:59:58.418Z,95637.88
2023-03-20T01:02:30.062Z,95661.91
2023-03-20T01:04:58.985Z,95656.50
2023-03-20T01:07:27.859Z,95686.38
2023-03-20T01:09:56.391Z,95669.72
2023-03-20T01:12:26.302Z,95672.09
2023-03-20T01:14:57.545Z,95677.19
2023-03-20T01:17:27.805Z,95675.06
2023-03-20T01:19:57.120Z,95668.91
2023-03-20T01:22:25.573Z,95675.09
2023-03-20T01:24:54.040Z,95673.75
2023-03-20T01:27:23.756Z,95672.41
2023-03-20T01:29:53.836Z,95671.91
2023-03-20T01:32:22.162Z,95673.25
2023-03-20T01:34:51.475Z,95674.34
2023-03-20T01:37:26.862Z,95674.88
2023-03-20T01:39:57.376Z,95669.47
2023-03-20T01:42:26.116Z,95682.69
2023-03-20T01:44:55.964Z,95684.28
2023-03-20T01:47:26.243Z,95691.84
2023-03-20T01:50:22.802Z,95694.81
2023-03-20T01:52:53.976Z,95692.88
2023-03-20T01:55:23.444Z,95678.81
2023-03-20T01:57:56.041Z,95668.50
2023-03-20T02:00:26.332Z,95700.31
2023-03-20T02:02:56.155Z,95704.63
2023-03-20T02:05:24.944Z,95661.72
2023-03-20T02:08:02.596Z,95703.56
2023-03-20T02:10:31.165Z,95703.56
2023-03-20T02:13:00.620Z,95695.22
2023-03-20T02:15:32.062Z,95701.44
2023-03-20T02:18:00.552Z,95696.06
2023-03-20T02:20:41.598Z,95697.13
2023-03-20T02:23:41.960Z,95703.06
2023-03-20T02:26:36.275Z,95696.59
2023-03-20T02:29:19.050Z,95697.91
2023-03-20T02:32:12.387Z,95690.16
2023-03-20T02:35:03.788Z,95690.16
2023-03-20T02:38:08.068Z,95690.16
2023-03-20T02:40:46.104Z,95680.44
2023-03-20T02:43:22.256Z,95691.19
2023-03-20T02:45:57.925Z,95688.50
2023-03-20T02:48:40.801Z,95659.66
2023-03-20T02:51:17.428Z,95678.72
2023-03-20T02:53:54.114Z,95688.41
2023-03-20T02:56:32.043Z,95691.06
2023-03-20T02:59:12.645Z,95687.78
2023-03-20T03:01:45.613Z,95691.25
2023-03-20T03:04:19.302Z,95692.59
2023-03-20T03:06:49.011Z,95699.81
2023-03-20T03:09:22.787Z,95689.88
2023-03-20T03:11:52.066Z,95691.59
2023-03-20T03:14:31.172Z,95692.44
2023-03-20T03:17:01.903Z,95690.31
2023-03-20T03:19:31.838Z,95695.16
2023-03-20T03:22:00.146Z,95696.53
2023-03-20T03:24:40.783Z,95695.78
2023-03-20T03:27:18.648Z,95690.13
2023-03-20T03:29:52.605Z,95663.16
2023-03-20T03:32:24.764Z,95677.50
2023-03-20T03:34:53.533Z,95689.91
2023-03-20T03:37:30.705Z,95689.41
2023-03-20T03:40:11.988Z,95684.56
2023-03-20T03:42:45.825Z,95684.09
2023-03-20T03:45:17.476Z,95679.81
2023-03-20T03:47:52.279Z,95677.31
2023-03-20T03:50:27.033Z,95686.53
2023-03-20T03:52:59.797Z,95673.28
2023-03-20T03:55:36.656Z,95682.50
2023-03-20T03:58:10.202Z,95677.97
2023-03-20T04:00:43.191Z,95680.94
2023-03-20T04:03:12.433Z,95686.88
2023-03-20T04:05:45.937Z,95691.72
2023-03-20T04:08:16.516Z,95684.16
2023-03-20T04:10:46.262Z,95698.72
2023-03-20T04:13:14.519Z,95692.84
2023-03-20T04:15:43.171Z,95690.16
2023-03-20T04:18:17.465Z,95683.44
2023-03-20T04:20:46.407Z,95694.19
2023-03-20T04:23:14.783Z,95704.47
2023-03-20T04:25:43.308Z,95713.91
2023-03-20T04:28:16.768Z,95705.78
2023-03-20T04:30:48.351Z,95701.97
2023-03-20T04:33:16.664Z,95697.63
2023-03-20T04:35:45.096Z,95706.84
2023-03-20T04:38:13.425Z,95706.28
2023-03-20T04:40:41.888Z,95707.88
2023-03-20T04:43:10.251Z,95708.97
2023-03-20T04:45:40.129Z,95704.94
2023-03-20T04:48:09.145Z,95709.50
2023-03-20T04:50:37.442Z,95714.88
2023-03-20T04:53:05.907Z,95721.88
2023-03-20T04:55:34.600Z,95696.56
2023-03-20T04:58:03.072Z,95718.63
2023-03-20T05:00:31.476Z,95714.06
2023-03-20T05:03:01.629Z,95721.88
2023-03-20T05:05:29.931Z,95726.97
2023-03-20T05:07:58.295Z,95719.72
2023-03-20T05:10:26.752Z,95718.41
2023-03-20T05:12:55.083Z,95714.91
2023-03-20T05:15:23.372Z,95719.22
2023-03-20T05:17:51.933Z,95719.22
2023-03-20T05:20:21.769Z,95714.34
2023-03-20T05:22:51.658Z,95724.00
2023-03-20T05:25:20.094Z,95737.41
2023-03-20T05:27:48.917Z,95729.75
2023-03-20T05:30:17.623Z,95712.22
2023-03-20T05:32:46.050Z,95752.44
2023-03-20T05:35:14.396Z,95737.63
2023-03-20T05:37:44.064Z,95744.06
2023-03-20T05:40:14.896Z,95746.50
2023-03-20T05:42:43.469Z,95708.66
2023-03-20T05:45:12.674Z,95740.56
2023-03-20T05:47:41.585Z,95743.50
2023-03-20T05:50:12.016Z,95743.78
2023-03-20T05:52:40.818Z,95737.34
2023-03-20T05:55:11.008Z,95740.56
2023-03-20T05:57:39.322Z,95739.00
2023-03-20T06:00:10.539Z,95717.41
2023-03-20T06:02:39.053Z,95723.94
2023-03-20T06:05:08.120Z,95725.91
2023-03-20T06:07:36.425Z,95735.84
2023-03-20T06:10:04.910Z,95729.97
2023-03-20T06:12:34.710Z,95721.91
2023-03-20T06:15:03.025Z,95733.50
2023-03-20T06:17:31.350Z,95737.84
2023-03-20T06:19:59.633Z,95730.03
2023-03-20T06:22:28.541Z,95694.72
2023-03-20T06:24:57.451Z,95728.47
2023-03-20T06:27:26.076Z,95730.84
2023-03-20T06:29:55.884Z,95732.19
2023-03-20T06:32:24.508Z,95721.34
2023-03-20T06:34:52.866Z,95736.47
2023-03-20T06:37:22.093Z,95737.81
2023-03-20T06:39:51.137Z,95739.44
2023-03-20T06:42:19.476Z,95752.88
2023-03-20T06:44:47.827Z,95719.50
2023-03-20T06:47:17.740Z,95741.63
2023-03-20T06:49:46.214Z,95738.69
2023-03-20T06:52:18.168Z,95742.97
2023-03-20T06:54:46.945Z,95750.06
2023-03-20T06:57:17.818Z,95750.81
2023-03-20T06:59:46.126Z,95736.53
2023-03-20T07:02:14.471Z,95756.72
2023-03-20T07:04:44.345Z,95753.50
2023-03-20T07:07:12.994Z,95745.44
2023-03-20T07:09:41.443Z,95766.97
2023-03-20T07:12:15.111Z,95764.88
2023-03-20T07:14:43.152Z,95767.78
2023-03-20T07:17:12.545Z,95762.75
2023-03-20T07:19:41.556Z,95765.47
2023-03-20T07:22:19.765Z,95769.56
2023-03-20T07:24:48.022Z,95767.69
2023-03-20T07:27:16.757Z,95772.31
2023-03-20T07:29:45.199Z,95776.06
2023-03-20T07:32:13.587Z,95771.19
2023-03-20T07:34:42.161Z,95771.72
2023-03-20T07:37:12.138Z,95759.34
2023-03-20T07:39:40.843Z,95773.31
2023-03-20T07:42:09.319Z,95772.78
2023-03-20T07:44:37.722Z,95769.56
2023-03-20T07:47:07.316Z,95768.50
2023-03-20T07:49:36.032Z,95772.25
2023-03-20T07:52:04.504Z,95778.75
2023-03-20T07:54:34.836Z,95772.84
2023-03-20T07:57:05.535Z,95788.44
2023-03-20T07:59:34.103Z,95791.16
2023-03-20T08:02:02.442Z,95790.38
2023-03-20T08:04:30.770Z,95762.06
2023-03-20T08:06:59.169Z,95782.31
2023-03-20T08:09:27.597Z,95796.38
2023-03-20T08:11:57.425Z,95798.25
2023-03-20T08:14:25.971Z,95791.50
2023-03-20T08:17:12.333Z,95792.34
2023-03-20T08:19:42.425Z,95791.28
2023-03-20T08:22:11.063Z,95794.50
2023-03-20T08:24:39.621Z,95789.91
2023-03-20T08:27:09.449Z,95796.13
2023-03-20T08:29:38.028Z,95798.28
2023-03-20T08:32:07.490Z,95799.09
2023-03-20T08:34:35.956Z,95789.66
2023-03-20T08:37:05.126Z,95799.91
2023-03-20T08:39:33.477Z,95791.56
2023-03-20T08:42:01.833Z,95795.31
2023-03-20T08:44:31.795Z,95803.66
2023-03-20T08:47:00.165Z,95809.31
2023-03-20T08:49:29.486Z,95811.75
2023-03-20T08:51:57.896Z,95812.84
2023-03-20T08:54:26.241Z,95813.94
2023-03-20T08:56:54.893Z,95816.91
2023-03-20T08:59:23.329Z,95819.31
2023-03-20T09:01:53.186Z,95817.16
2023-03-20T09:04:21.485Z,95826.84
2023-03-20T09:06:50.740Z,95826.84
2023-03-20T09:09:21.765Z,95817.69
2023-03-20T09:11:50.200Z,95812.84
2023-03-20T09:14:18.663Z,95809.31
2023-03-20T09:16:47.272Z,95806.34
2023-03-20T09:19:17.141Z,95817.66
2023-03-20T09:21:45.634Z,95809.06
2023-03-20T09:24:14.269Z,95811.47
2023-03-20T09:26:42.552Z,95806.88
2023-03-20T09:29:11.108Z,95782.91
2023-03-20T09:31:39.455Z,95815.53
2023-03-20T09:34:07.962Z,95815.00
2023-03-20T09:36:37.773Z,95814.47
2023-03-20T09:39:06.297Z,95816.06
2023-03-20T09:41:49.203Z,95813.38
2023-03-20T09:44:41.440Z,95825.25
2023-03-20T09:47:21.204Z,95818.22
2023-03-20T09:50:07.898Z,95828.47
2023-03-20T09:52:42.343Z,95834.38
2023-03-20T09:55:16.133Z,95835.47
2023-03-20T09:57:48.965Z,95833.03
2023-03-20T10:00:21.301Z,95819.84
2023-03-20T10:02:54.252Z,95828.19
2023-03-20T10:05:27.490Z,95829.00
2023-03-20T10:08:00.600Z,95821.44
2023-03-20T10:10:39.239Z,95820.09
2023-03-20T10:13:20.098Z,95834.94
2023-03-20T10:15:54.135Z,95837.38
2023-03-20T10:18:26.916Z,95834.97
2023-03-20T10:20:59.073Z,95836.56
2023-03-20T10:23:36.724Z,95831.72
2023-03-20T10:26:09.455Z,95829.03
2023-03-20T10:28:45.139Z,95830.63
2023-03-20T10:31:31.600Z,95835.25
2023-03-20T10:34:12.384Z,95833.88
2023-03-20T10:36:52.576Z,95832.53
2023-03-20T10:39:31.923Z,95824.19
2023-03-20T10:42:03.437Z,95828.50
2023-03-20T10:44:36.552Z,95831.19
2023-03-20T10:47:09.291Z,95831.19
2023-03-20T10:49:42.198Z,95805.84
2023-03-20T10:52:16.342Z,95833.63
2023-03-20T10:54:51.160Z,95832.53
2023-03-20T10:57:24.778Z,95828.50
2023-03-20T10:59:54.933Z,95825.78
2023-03-20T11:02:27.160Z,95831.72
2023-03-20T11:04:55.467Z,95826.59
2023-03-20T11:07:27.465Z,95806.38
2023-03-20T11:10:17.152Z,95809.88
2023-03-20T11:12:47.613Z,95822.28
2023-03-20T11:15:27.062Z,95819.88
2023-03-20T11:17:57.761Z,95807.75
2023-03-20T11:20:27.536Z,95822.56
2023-03-20T11:23:01.049Z,95816.91
2023-03-20T11:25:36.070Z,95819.03
2023-03-20T11:28:38.819Z,95818.78
2023-03-20T11:31:15.974Z,95817.69
2023-03-20T11:33:46.368Z,95812.84
2023-03-20T11:36:25.897Z,95798.28
2023-03-20T11:39:02.547Z,95794.53
2023-03-20T11:41:32.595Z,95808.25
2023-03-20T11:44:01.289Z,95761.94
2023-03-20T11:46:29.717Z,95808.25
2023-03-20T11:49:07.963Z,95816.88
2023-03-20T11:51:38.262Z,95804.75
2023-03-20T11:54:09.313Z,95793.72
2023-03-20T11:56:39.137Z,95807.22
2023-03-20T11:59:15.565Z,95816.91
2023-03-20T12:01:48.984Z,95820.41
2023-03-20T12:04:19.040Z,95803.44
2023-03-20T12:06:54.644Z,95798.31
2023-03-20T12:09:35.700Z,95794.28
2023-03-20T12:12:14.945Z,95767.59
2023-03-20T12:14:51.706Z,95791.03
2023-03-20T12:17:36.776Z,95792.94
2023-03-20T12:20:22.166Z,95789.69
2023-03-20T12:22:58.292Z,95787.53
2023-03-20T12:25:28.678Z,95774.59
2023-03-20T12:28:08.143Z,95773.78
2023-03-20T12:30:58.280Z,95785.38
2023-03-20T12:33:36.434Z,95763.28
2023-03-20T12:36:06.653Z,95760.03
2023-03-20T12:38:35.719Z,95774.06
2023-03-20T12:41:13.356Z,95775.66
2023-03-20T12:44:06.258Z,95778.91
2023-03-20T12:46:42.246Z,95775.13
2023-03-20T12:49:21.200Z,95775.66
2023-03-20T12:52:00.160Z,95761.91
2023-03-20T12:54:49.985Z,95762.16
2023-03-20T12:57:26.809Z,95765.91
2023-03-20T13:00:13.248Z,95742.72
2023-03-20T13:02:52.005Z,95767.81
2023-03-20T13:05:34.776Z,95763.22
2023-03-20T13:08:32.706Z,95754.06
2023-03-20T13:11:07.149Z,95720.16
2023-03-20T13:13:43.261Z,95742.47
2023-03-20T13:16:22.056Z,95747.53
2023-03-20T13:18:59.711Z,95753.75
2023-03-20T13:21:37.430Z,95747.00
2023-03-20T13:24:24.103Z,95746.97
2023-03-20T13:27:00.132Z,95749.72
2023-03-20T13:29:35.587Z,95747.03
2023-03-20T13:32:16.199Z,95747.88
2023-03-20T13:35:00.892Z,95737.09
2023-03-20T13:37:36.110Z,95749.19
2023-03-20T13:40:16.115Z,95751.63
2023-03-20T13:42:52.144Z,95750.34
2023-03-20T13:45:32.188Z,95728.22
2023-03-20T13:48:07.278Z,95742.78
2023-03-20T13:50:44.055Z,95741.16
2023-03-20T13:53:23.445Z,95724.47
2023-03-20T13:56:01.928Z,95739.56
2023-03-20T13:59:03.807Z,95730.69
2023-03-20T14:01:42.240Z,95733.38
2023-03-20T14:04:16.263Z,95696.47
2023-03-20T14:06:55.512Z,95722.88
2023-03-20T14:09:30.031Z,95721.22
2023-03-20T14:12:02.696Z,95709.94
2023-03-20T14:14:32.668Z,95717.72
2023-03-20T14:17:10.266Z,95722.59
2023-03-20T14:19:40.470Z,95716.41
2023-03-20T14:22:17.154Z,95716.38
2023-03-20T14:24:55.162Z,95702.91
2023-03-20T14:27:42.975Z,95713.94
2023-03-20T14:30:40.196Z,95704.47
2023-03-20T14:33:26.164Z,95698.81
2023-03-20T14:36:19.095Z,95705.00
2023-03-20T14:38:55.339Z,95710.66
2023-03-20T14:41:29.772Z,95702.31
2023-03-20T14:44:16.395Z,95705.53
2023-03-20T14:46:53.038Z,95703.41
2023-03-20T14:49:34.203Z,95707.97
2023-03-20T14:52:18.617Z,95702.28
2023-03-20T14:54:53.875Z,95686.38
2023-03-20T14:57:35.768Z,95667.78
2023-03-20T15:00:20.135Z,95687.09
2023-03-20T15:02:51.789Z,95687.16
2023-03-20T15:05:29.433Z,95682.84
2023-03-20T15:08:04.489Z,95682.09
2023-03-20T15:10:37.430Z,95682.88
2023-03-20T15:13:09.102Z,95683.91
2023-03-20T15:15:37.443Z,95656.38
2023-03-20T15:18:08.937Z,95686.34
2023-03-20T15:20:38.251Z,95684.94
2023-03-20T15:23:09.085Z,95683.41
2023-03-20T15:25:41.139Z,95688.84
2023-03-20T15:28:13.322Z,95675.38
2023-03-20T15:30:42.332Z,95696.66
2023-03-20T15:33:18.133Z,95692.91
2023-03-20T15:35:47.059Z,95695.84
2023-03-20T15:38:18.337Z,95688.59
2023-03-20T15:40:51.367Z,95650.94
2023-03-20T15:43:22.949Z,95700.75
2023-03-20T15:46:14.103Z,95669.50
2023-03-20T15:48:48.168Z,95687.78
2023-03-20T15:51:17.602Z,95688.34
2023-03-20T15:53:49.816Z,95691.59
2023-03-20T15:56:21.182Z,95671.97
2023-03-20T15:58:53.949Z,95693.19
2023-03-20T16:01:24.517Z,95692.09
2023-03-20T16:03:54.176Z,95691.88
2023-03-20T16:06:23.712Z,95687.31
2023-03-20T16:09:00.979Z,95698.09
2023-03-20T16:11:38.587Z,95689.75
2023-03-20T16:14:08.463Z,95698.09
2023-03-20T16:16:37.858Z,95701.31
2023-03-20T16:19:07.601Z,95694.06
2023-03-20T16:21:39.190Z,95696.75
2023-03-20T16:24:16.348Z,95699.19
2023-03-20T16:26:49.300Z,95700.53
2023-03-20T16:29:19.036Z,95708.34
2023-03-20T16:31:51.211Z,95711.84
2023-03-20T16:34:22.941Z,95697.03
2023-03-20T16:36:55.522Z,95700.53
2023-03-20T16:39:27.549Z,95658.28
2023-03-20T16:42:10.296Z,95695.44
2023-03-20T16:44:39.702Z,95701.06
2023-03-20T16:47:18.630Z,95697.03
2023-03-20T16:50:06.151Z,95701.88
2023-03-20T16:52:38.959Z,95670.66
2023-03-20T16:55:16.069Z,95614.06
2023-03-20T16:57:47.380Z,95694.88
2023-03-20T17:00:25.801Z,95697.03
2023-03-20T17:03:01.364Z,95692.44
2023-03-20T17:05:49.142Z,95697.56
2023-03-20T17:08:24.706Z,95694.06
2023-03-20T17:10:58.362Z,95691.38
2023-03-20T17:13:26.357Z,95698.59
2023-03-20T17:15:55.420Z,95693.47
2023-03-20T17:18:24.547Z,95698.06
2023-03-20T17:20:52.902Z,95697.25
2023-03-20T17:23:23.077Z,95705.03
2023-03-20T17:25:54.265Z,95682.69
2023-03-20T17:28:25.112Z,95655.78
2023-03-20T17:30:53.993Z,95704.50
2023-03-20T17:33:22.423Z,95709.09
2023-03-20T17:35:51.078Z,95702.34
2023-03-20T17:38:22.778Z,95709.56
2023-03-20T17:40:52.364Z,95709.84
2023-03-20T17:43:22.913Z,95685.06
2023-03-20T17:45:51.336Z,95712.78
2023-03-20T17:48:21.745Z,95709.31
2023-03-20T17:50:51.696Z,95686.13
2023-03-20T17:53:21.908Z,95719.00
2023-03-20T17:55:50.230Z,95719.00
2023-03-20T17:58:23.471Z,95725.41
2023-03-20T18:00:52.898Z,95702.78
2023-03-20T18:03:21.804Z,95734.03
2023-03-20T18:05:52.059Z,95734.56
2023-03-20T18:08:22.636Z,95729.69
2023-03-20T18:10:52.156Z,95722.69
2023-03-20T18:13:22.512Z,95723.53
2023-03-20T18:15:51.724Z,95727.50
2023-03-20T18:18:23.730Z,95704.94
2023-03-20T18:20:55.266Z,95718.34
2023-03-20T18:23:23.922Z,95722.81
2023-03-20T18:25:53.274Z,95723.91
2023-03-20T18:28:23.525Z,95728.72
2023-03-20T18:30:52.790Z,95734.38
2023-03-20T18:33:25.785Z,95734.63
2023-03-20T18:35:54.214Z,95734.88
2023-03-20T18:38:24.935Z,95727.13
2023-03-20T18:40:53.266Z,95659.41
2023-03-20T18:43:23.370Z,95729.97
2023-03-20T18:45:51.759Z,95713.75
2023-03-20T18:48:20.378Z,95732.41
2023-03-20T18:50:51.102Z,95737.91
2023-03-20T18:53:20.331Z,95747.06
2023-03-20T18:55:49.091Z,95736.25
2023-03-20T18:58:23.941Z,95470.41
2023-03-20T19:00:54.219Z,95724.22
2023-03-20T19:03:24.633Z,95694.00
2023-03-20T19:05:53.890Z,95744.19
2023-03-20T19:08:22.877Z,95743.63
2023-03-20T19:10:51.915Z,95739.91
2023-03-20T19:13:22.679Z,95745.25
2023-03-20T19:15:51.393Z,95751.22
2023-03-20T19:25:34.283Z,95561.72
2023-03-20T19:31:54.361Z,95751.06
2023-03-20T19:37:19.747Z,95754.81
2023-03-20T19:39:48.080Z,95759.16
2023-03-20T19:42:47.534Z,95754.00
2023-03-20T19:45:06.678Z,95752.06
2023-03-20T19:47:35.051Z,95609.06
2023-03-20T19:50:04.827Z,95732.56
2023-03-20T19:52:36.991Z,95760.69
2023-03-20T19:55:05.835Z,95758.19
2023-03-20T19:57:34.652Z,95758.38
2023-03-20T20:00:54.833Z,95764.81
2023-03-20T20:02:52.241Z,95764.84
2023-03-20T20:05:26.656Z,95680.63
2023-03-20T20:10:48.158Z,95750.69
2023-03-20T20:13:19.183Z,95768.28
2023-03-20T20:15:48.812Z,95673.50
2023-03-20T20:18:17.808Z,95759.81
2023-03-20T20:21:28.769Z,95667.75
2023-03-20T20:23:38.414Z,95742.63
2023-03-20T20:26:09.663Z,95625.75
2023-03-20T20:28:38.151Z,95726.44
2023-03-20T20:31:06.919Z,95646.91
2023-03-20T20:33:36.820Z,95738.81
2023-03-20T20:36:57.623Z,95734.50
2023-03-20T20:39:01.147Z,95733.75
2023-03-20T20:41:29.606Z,95730.69
2023-03-20T20:44:17.633Z,95730.75
2023-03-20T20:49:29.823Z,95380.03
2023-03-20T20:52:04.132Z,95562.06
2023-03-20T20:55:34.694Z,95722.00
2023-03-20T21:07:27.788Z,95525.59
2023-03-20T21:09:56.239Z,95532.56
2023-03-20T21:12:35.123Z,95718.19
2023-03-20T21:15:08.298Z,95498.28
2023-03-20T21:17:36.912Z,95578.44
2023-03-20T21:20:07.404Z,95721.66
2023-03-20T21:29:10.001Z,95715.53
2023-03-20T21:31:42.966Z,95453.44
2023-03-20T21:36:08.228Z,95331.78
2023-03-20T21:43:47.340Z,95719.56
2023-03-20T21:56:23.566Z,95348.78
2023-03-20T21:59:02.907Z,95677.63
2023-03-20T22:13:13.922Z,95663.31
2023-03-20T22:15:54.483Z,95714.84
2023-03-20T22:21:41.469Z,95706.88
2023-03-20T22:27:42.859Z,95717.78
2023-03-20T22:46:45.182Z,95734.41
2023-03-20T22:49:13.977Z,95724.31
2023-03-20T22:51:57.476Z,95727.00
2023-03-20T22:54:31.981Z,95727.31
2023-03-20T22:57:00.471Z,95729.72
2023-03-20T22:59:28.817Z,95726.00
2023-03-20T23:01:57.066Z,95728.03
2023-03-20T23:04:25.464Z,95730.72
2023-03-20T23:06:53.717Z,95736.41
2023-03-20T23:09:22.132Z,95731.34
2023-03-20T23:11:51.889Z,95727.63
2023-03-20T23:14:22.190Z,95731.03
2023-03-20T23:16:51.089Z,95737.72
2023-03-20T23:19:19.605Z,95736.56
2023-03-20T23:21:48.070Z,95738.22
2023-03-20T23:24:17.042Z,95745.75
2023-03-20T23:26:45.609Z,95743.13
2023-03-20T23:29:15.346Z,95735.84
2023-03-20T23:31:44.018Z,95722.00
2023-03-20T23:34:12.445Z,95732.34
2023-03-20T23:36:40.827Z,95725.06
2023-03-20T23:39:12.494Z,95716.78
2023-03-20T23:42:05.091Z,95731.91
2023-03-20T23:44:31.058Z,95633.09
2023-03-20T23:47:01.357Z,95741.56
2023-03-20T23:49:31.697Z,95744.81
2023-03-20T23:52:00.040Z,95737.53
2023-03-20T23:54:28.977Z,95733.22
2023-03-20T23:56:57.275Z,95731.34
2023-03-20T23:59:25.552Z,95711.41
